createdAt,value
2023-02-08T00:00:06.794Z,0.47
2023-02-08T00:02:33.460Z,0.50
2023-02-08T00:05:00.192Z,0.50
2023-02-08T00:07:26.943Z,0.40
2023-02-08T00:09:53.652Z,0.50
2023-02-08T00:12:20.487Z,0.40
2023-02-08T00:14:47.196Z,0.47
2023-02-08T00:17:13.900Z,0.40
2023-02-08T00:19:40.621Z,0.40
2023-02-08T00:22:07.313Z,0.50
2023-02-08T00:24:34.022Z,0.40
2023-02-08T00:27:00.735Z,0.40
2023-02-08T00:29:27.573Z,0.60
2023-02-08T00:31:54.303Z,0.50
2023-02-08T00:34:21.008Z,0.50
2023-02-08T00:36:47.699Z,0.52
2023-02-08T00:39:14.926Z,0.50
2023-02-08T00:41:41.572Z,0.50
2023-02-08T00:44:08.234Z,0.43
2023-02-08T00:46:34.886Z,0.40
2023-02-08T00:49:01.564Z,0.40
2023-02-08T00:51:28.239Z,0.43
2023-02-08T00:53:54.952Z,0.50
2023-02-08T00:56:21.675Z,0.40
2023-02-08T00:58:48.288Z,0.30
2023-02-08T01:01:15.083Z,0.50
2023-02-08T01:03:43.530Z,0.60
2023-02-08T01:06:14.568Z,0.40
2023-02-08T01:08:41.303Z,0.40
2023-02-08T01:11:14.815Z,0.50
2023-02-08T01:13:42.290Z,0.40
2023-02-08T01:16:21.638Z,0.60
2023-02-08T01:18:51.077Z,0.40
2023-02-08T01:21:23.854Z,0.50
2023-02-08T01:23:50.941Z,0.50
2023-02-08T01:26:18.734Z,0.60
2023-02-08T01:28:46.163Z,0.57
2023-02-08T01:31:15.454Z,0.50
2023-02-08T01:33:42.367Z,0.50
2023-02-08T01:36:09.655Z,0.45
2023-02-08T01:38:37.625Z,0.50
2023-02-08T01:41:06.502Z,0.60
2023-02-08T01:44:07.175Z,0.40
2023-02-08T01:46:45.209Z,0.52
2023-02-08T01:49:29.679Z,0.50
2023-02-08T01:52:06.167Z,0.50
2023-02-08T01:54:38.227Z,0.50
2023-02-08T01:57:05.282Z,0.60
2023-02-08T01:59:42.728Z,0.60
2023-02-08T02:02:13.260Z,0.50
2023-02-08T02:04:40.666Z,0.52
2023-02-08T02:07:07.531Z,0.63
2023-02-08T02:09:43.935Z,0.50
2023-02-08T02:12:11.271Z,0.40
2023-02-08T02:14:39.494Z,0.50
2023-02-08T02:17:06.715Z,0.52
2023-02-08T02:19:56.014Z,0.57
2023-02-08T02:22:46.073Z,0.50
2023-02-08T02:25:48.125Z,0.47
2023-02-08T02:28:26.788Z,0.50
2023-02-08T02:31:36.773Z,0.40
2023-02-08T02:34:29.818Z,0.50
2023-02-08T02:37:27.264Z,0.50
2023-02-08T02:40:05.892Z,0.50
2023-02-08T02:43:03.086Z,0.40
2023-02-08T02:46:00.773Z,0.50
2023-02-08T02:48:48.798Z,0.40
2023-02-08T02:51:22.330Z,0.50
2023-02-08T02:53:53.117Z,0.50
2023-02-08T02:56:27.714Z,0.50
2023-02-08T02:58:58.709Z,0.50
2023-02-08T03:01:30.072Z,0.50
2023-02-08T03:03:57.521Z,0.60
2023-02-08T03:06:43.793Z,0.60
2023-02-08T03:09:31.482Z,0.50
2023-02-08T03:12:15.725Z,0.40
2023-02-08T03:14:50.754Z,0.40
2023-02-08T03:17:28.198Z,0.40
2023-02-08T03:20:18.696Z,0.60
2023-02-08T03:23:08.044Z,0.50
2023-02-08T03:26:01.563Z,0.50
2023-02-08T03:29:00.498Z,0.40
2023-02-08T03:31:41.599Z,0.50
2023-02-08T03:34:23.925Z,0.52
2023-02-08T03:36:59.775Z,0.40
2023-02-08T03:39:29.863Z,0.50
2023-02-08T03:42:00.247Z,0.40
2023-02-08T03:44:48.253Z,0.50
2023-02-08T03:47:25.990Z,0.50
2023-02-08T03:49:55.491Z,0.63
2023-02-08T03:52:23.249Z,0.60
2023-02-08T03:54:54.961Z,0.50
2023-02-08T03:57:29.409Z,0.50
2023-02-08T04:00:12.334Z,0.50
2023-02-08T04:02:44.119Z,0.50
2023-02-08T04:05:11.346Z,0.43
2023-02-08T04:07:38.230Z,0.60
2023-02-08T04:10:05.201Z,0.43
2023-02-08T04:12:31.869Z,0.57
2023-02-08T04:14:58.571Z,0.60
2023-02-08T04:17:25.244Z,0.50
2023-02-08T04:19:51.844Z,0.63
2023-02-08T04:22:18.501Z,0.55
2023-02-08T04:24:45.189Z,0.50
2023-02-08T04:27:11.827Z,0.70
2023-02-08T04:29:38.484Z,0.47
2023-02-08T04:32:05.174Z,0.52
2023-02-08T04:34:31.808Z,0.50
2023-02-08T04:36:58.517Z,0.57
2023-02-08T04:39:25.303Z,0.50
2023-02-08T04:41:51.964Z,0.57
2023-02-08T04:44:18.603Z,0.60
2023-02-08T04:46:45.337Z,0.50
2023-02-08T04:49:12.001Z,0.52
2023-02-08T04:51:38.726Z,0.50
2023-02-08T04:54:05.379Z,0.50
2023-02-08T04:56:32.101Z,0.55
2023-02-08T04:58:59.161Z,0.60
2023-02-08T05:01:25.868Z,0.57
2023-02-08T05:03:52.519Z,0.60
2023-02-08T05:06:19.172Z,0.60
2023-02-08T05:08:45.838Z,0.60
2023-02-08T05:11:12.518Z,0.50
2023-02-08T05:13:39.243Z,0.50
2023-02-08T05:16:06.162Z,0.55
2023-02-08T05:18:32.865Z,0.55
2023-02-08T05:21:01.019Z,0.60
2023-02-08T05:23:28.065Z,0.50
2023-02-08T05:25:54.941Z,0.60
2023-02-08T05:28:22.226Z,0.52
2023-02-08T05:30:49.186Z,0.52
2023-02-08T05:33:16.366Z,0.50
2023-02-08T05:35:45.507Z,0.50
2023-02-08T05:38:12.388Z,0.50
2023-02-08T05:40:39.419Z,0.65
2023-02-08T05:43:06.316Z,0.40
2023-02-08T05:45:33.061Z,0.60
2023-02-08T05:47:59.777Z,0.50
2023-02-08T05:50:26.442Z,0.50
2023-02-08T05:52:53.095Z,0.60
2023-02-08T05:55:19.735Z,0.60
2023-02-08T05:57:46.481Z,0.50
2023-02-08T06:00:13.752Z,0.50
2023-02-08T06:02:40.423Z,0.50
2023-02-08T06:05:07.537Z,0.43
2023-02-08T06:07:34.141Z,0.60
2023-02-08T06:10:00.792Z,0.50
2023-02-08T06:12:27.403Z,0.50
2023-02-08T06:14:54.022Z,0.60
2023-02-08T06:17:20.629Z,0.60
2023-02-08T06:19:47.291Z,0.43
2023-02-08T06:22:14.016Z,0.52
2023-02-08T06:24:40.650Z,0.47
2023-02-08T06:27:07.354Z,0.52
2023-02-08T06:29:34.019Z,0.50
2023-02-08T06:32:00.740Z,0.50
2023-02-08T06:34:27.603Z,0.60
2023-02-08T06:36:54.420Z,0.50
2023-02-08T06:39:21.083Z,0.60
2023-02-08T06:41:47.726Z,0.50
2023-02-08T06:44:14.421Z,0.50
2023-02-08T06:46:41.133Z,0.60
2023-02-08T06:49:07.884Z,0.60
2023-02-08T06:51:34.515Z,0.63
2023-02-08T06:54:01.138Z,0.57
2023-02-08T06:56:27.837Z,0.57
2023-02-08T06:58:55.907Z,0.40
2023-02-08T07:01:22.689Z,0.50
2023-02-08T07:03:49.395Z,0.50
2023-02-08T07:06:18.475Z,0.40
2023-02-08T07:08:46.085Z,0.50
2023-02-08T07:11:15.423Z,0.40
2023-02-08T07:13:42.433Z,0.50
2023-02-08T07:16:10.379Z,0.60
2023-02-08T07:18:37.310Z,0.40
2023-02-08T07:21:04.795Z,0.40
2023-02-08T07:23:31.834Z,0.60
2023-02-08T07:26:04.106Z,0.50
2023-02-08T07:28:31.297Z,0.40
2023-02-08T07:30:58.230Z,0.60
2023-02-08T07:33:25.431Z,0.60
2023-02-08T07:35:52.305Z,0.50
2023-02-08T07:38:20.738Z,0.60
2023-02-08T07:40:47.829Z,0.60
2023-02-08T07:43:14.541Z,0.43
2023-02-08T07:45:41.243Z,0.55
2023-02-08T07:48:07.950Z,0.50
2023-02-08T07:50:34.627Z,0.50
2023-02-08T07:53:01.237Z,0.50
2023-02-08T07:55:27.906Z,0.50
2023-02-08T07:57:56.016Z,0.50
2023-02-08T08:00:22.830Z,0.50
2023-02-08T08:02:51.049Z,0.40
2023-02-08T08:05:17.751Z,0.38
2023-02-08T08:07:44.482Z,0.50
2023-02-08T08:10:11.168Z,0.50
2023-02-08T08:12:37.889Z,0.45
2023-02-08T08:15:04.989Z,0.40
2023-02-08T08:17:31.610Z,0.50
2023-02-08T08:19:58.262Z,0.40
2023-02-08T08:22:25.027Z,0.45
2023-02-08T08:24:51.678Z,0.47
2023-02-08T08:27:18.324Z,0.40
2023-02-08T08:29:45.044Z,0.40
2023-02-08T08:32:12.010Z,0.40
2023-02-08T08:34:38.984Z,0.40
2023-02-08T08:37:05.637Z,0.47
2023-02-08T08:39:32.347Z,0.40
2023-02-08T08:42:00.339Z,0.50
2023-02-08T08:44:27.013Z,0.40
2023-02-08T08:46:57.561Z,0.50
2023-02-08T08:49:25.225Z,0.38
2023-02-08T08:51:51.913Z,0.50
2023-02-08T08:54:18.922Z,0.50
2023-02-08T08:56:45.860Z,0.50
2023-02-08T08:59:12.665Z,0.50
2023-02-08T09:01:41.340Z,0.50
2023-02-08T09:04:09.117Z,0.43
2023-02-08T09:06:36.063Z,0.40
2023-02-08T09:09:03.425Z,0.40
2023-02-08T09:11:30.424Z,0.40
2023-02-08T09:13:57.146Z,0.40
2023-02-08T09:16:24.799Z,0.50
2023-02-08T09:18:51.651Z,0.40
2023-02-08T09:21:22.033Z,0.40
2023-02-08T09:23:48.747Z,0.35
2023-02-08T09:26:17.558Z,0.38
2023-02-08T09:28:44.345Z,0.47
2023-02-08T09:31:23.773Z,0.43
2023-02-08T09:33:51.933Z,0.40
2023-02-08T09:36:20.082Z,0.30
2023-02-08T09:38:47.713Z,0.40
2023-02-08T09:41:32.878Z,0.32
2023-02-08T09:44:31.958Z,0.40
2023-02-08T09:47:22.574Z,0.40
2023-02-08T09:49:57.483Z,0.30
2023-02-08T09:52:39.699Z,0.40
2023-02-08T09:55:41.475Z,0.40
2023-02-08T09:58:18.554Z,0.32
2023-02-08T10:00:48.476Z,0.30
2023-02-08T10:03:36.119Z,0.38
2023-02-08T10:06:05.215Z,0.30
2023-02-08T10:08:35.474Z,0.30
2023-02-08T10:11:30.407Z,0.40
2023-02-08T10:14:15.333Z,0.30
2023-02-08T10:17:11.061Z,0.35
2023-02-08T10:19:49.092Z,0.40
2023-02-08T10:22:42.142Z,0.40
2023-02-08T10:25:19.886Z,0.30
2023-02-08T10:27:55.345Z,0.40
2023-02-08T10:30:47.530Z,0.30
2023-02-08T10:33:22.670Z,0.30
2023-02-08T10:35:50.813Z,0.20
2023-02-08T10:38:20.529Z,0.30
2023-02-08T10:40:55.536Z,0.38
2023-02-08T10:43:25.165Z,0.20
2023-02-08T10:46:10.570Z,0.38
2023-02-08T10:48:59.859Z,0.30
2023-02-08T10:53:54.836Z,0.40
2023-02-08T10:56:43.805Z,0.30
2023-02-08T10:59:33.051Z,0.38
2023-02-08T11:04:26.966Z,0.30
2023-02-08T11:06:54.772Z,0.30
2023-02-08T11:11:52.852Z,0.30
2023-02-08T11:14:28.551Z,0.30
2023-02-08T11:17:02.047Z,0.40
2023-02-08T11:19:31.714Z,0.30
2023-02-08T11:21:58.995Z,0.30
2023-02-08T11:24:43.467Z,0.30
2023-02-08T11:27:28.365Z,0.35
2023-02-08T11:30:20.379Z,0.30
2023-02-08T11:32:49.206Z,0.30
2023-02-08T11:35:21.923Z,0.30
2023-02-08T11:37:51.304Z,0.30
2023-02-08T11:40:42.587Z,0.30
2023-02-08T11:43:31.272Z,0.30
2023-02-08T11:46:00.690Z,0.30
2023-02-08T11:48:39.948Z,0.30
2023-02-08T11:51:07.354Z,0.30
2023-02-08T11:53:45.956Z,0.30
2023-02-08T11:56:22.359Z,0.20
2023-02-08T11:59:02.353Z,0.30
2023-02-08T12:01:31.784Z,0.30
2023-02-08T12:04:01.663Z,0.30
2023-02-08T12:06:49.196Z,0.30
2023-02-08T12:09:30.872Z,0.20
2023-02-08T12:12:17.635Z,0.30
2023-02-08T12:15:03.046Z,0.30
2023-02-08T12:17:34.128Z,0.30
2023-02-08T12:20:32.341Z,0.30
2023-02-08T12:23:20.330Z,0.30
2023-02-08T12:26:10.624Z,0.20
2023-02-08T12:28:49.157Z,0.30
2023-02-08T12:31:18.965Z,0.30
2023-02-08T12:34:06.544Z,0.30
2023-02-08T12:37:46.220Z,0.20
2023-02-08T12:40:46.287Z,0.30
2023-02-08T12:43:43.629Z,0.30
2023-02-08T12:46:21.265Z,0.30
2023-02-08T12:49:03.173Z,0.30
2023-02-08T12:51:29.889Z,0.30
2023-02-08T12:54:07.764Z,0.30
2023-02-08T12:56:56.830Z,0.30
2023-02-08T12:59:54.178Z,0.30
2023-02-08T13:02:44.955Z,0.25
2023-02-08T13:05:18.861Z,0.30
2023-02-08T13:07:48.046Z,0.30
2023-02-08T13:10:30.232Z,0.30
2023-02-08T13:13:02.126Z,0.30
2023-02-08T13:16:00.600Z,0.30
2023-02-08T13:18:33.505Z,0.30
2023-02-08T13:21:12.651Z,0.30
2023-02-08T13:23:52.036Z,0.30
2023-02-08T13:26:22.984Z,0.20
2023-02-08T13:28:52.196Z,0.28
2023-02-08T13:31:25.723Z,0.30
2023-02-08T13:34:14.347Z,0.30
2023-02-08T13:36:51.508Z,0.30
2023-02-08T13:39:41.951Z,0.20
2023-02-08T13:42:27.460Z,0.30
2023-02-08T13:44:57.466Z,0.30
2023-02-08T13:47:34.471Z,0.20
2023-02-08T13:50:07.402Z,0.30
2023-02-08T13:52:47.087Z,0.30
2023-02-08T13:55:33.632Z,0.25
2023-02-08T13:58:04.925Z,0.30
2023-02-08T14:00:33.716Z,0.25
2023-02-08T14:03:02.563Z,0.28
2023-02-08T14:05:44.191Z,0.20
2023-02-08T14:08:39.101Z,0.30
2023-02-08T14:11:29.222Z,0.20
2023-02-08T14:14:12.778Z,0.30
2023-02-08T14:16:44.613Z,0.30
2023-02-08T14:19:20.281Z,0.20
2023-02-08T14:22:13.112Z,0.30
2023-02-08T14:24:48.206Z,0.20
2023-02-08T14:27:20.992Z,0.30
2023-02-08T14:30:17.947Z,0.30
2023-02-08T14:33:12.089Z,0.30
2023-02-08T14:36:31.242Z,0.22
2023-02-08T14:39:26.970Z,0.22
2023-02-08T14:42:05.447Z,0.28
2023-02-08T14:44:38.061Z,0.20
2023-02-08T14:47:16.752Z,0.30
2023-02-08T14:49:45.679Z,0.20
2023-02-08T14:52:19.288Z,0.20
2023-02-08T14:55:01.941Z,0.25
2023-02-08T14:57:37.607Z,0.20
2023-02-08T15:00:29.784Z,0.20
2023-02-08T15:02:57.462Z,0.30
2023-02-08T15:05:29.848Z,0.30
2023-02-08T15:07:58.930Z,0.30
2023-02-08T15:10:28.457Z,0.30
2023-02-08T15:13:00.654Z,0.25
2023-02-08T15:15:34.702Z,0.20
2023-02-08T15:18:03.111Z,0.20
2023-02-08T15:20:33.458Z,0.30
2023-02-08T15:23:17.876Z,0.25
2023-02-08T15:25:53.952Z,0.30
2023-02-08T15:28:23.070Z,0.20
2023-02-08T15:30:57.605Z,0.20
2023-02-08T15:33:24.998Z,0.30
2023-02-08T15:36:22.210Z,0.30
2023-02-08T15:38:49.102Z,0.30
2023-02-08T15:41:25.777Z,0.20
2023-02-08T15:44:21.046Z,0.30
2023-02-08T15:49:53.376Z,0.30
2023-02-08T15:52:27.593Z,0.30
2023-02-08T15:54:54.640Z,0.30
2023-02-08T15:57:36.723Z,0.30
2023-02-08T16:00:13.247Z,0.30
2023-02-08T16:02:40.960Z,0.30
2023-02-08T16:05:21.209Z,0.30
2023-02-08T16:07:48.618Z,0.25
2023-02-08T16:10:25.749Z,0.30
2023-02-08T16:12:56.195Z,0.30
2023-02-08T16:15:41.764Z,0.20
2023-02-08T16:18:39.729Z,0.20
2023-02-08T16:21:24.513Z,0.25
2023-02-08T16:23:53.994Z,0.30
2023-02-08T16:26:32.106Z,0.30
2023-02-08T16:29:02.162Z,0.20
2023-02-08T16:31:31.954Z,0.30
2023-02-08T16:34:05.064Z,0.25
2023-02-08T16:36:44.388Z,0.30
2023-02-08T16:39:14.255Z,0.30
2023-02-08T16:42:15.205Z,0.38
2023-02-08T16:45:09.158Z,0.40
2023-02-08T16:47:43.517Z,0.30
2023-02-08T16:50:13.167Z,0.30
2023-02-08T16:52:40.030Z,0.32
2023-02-08T16:55:07.583Z,0.40
2023-02-08T16:57:52.229Z,0.30
2023-02-08T17:00:20.871Z,0.40
2023-02-08T17:02:47.800Z,0.30
2023-02-08T17:05:15.265Z,0.30
2023-02-08T17:07:41.968Z,0.30
2023-02-08T17:10:17.054Z,0.35
2023-02-08T17:12:43.703Z,0.30
2023-02-08T17:15:10.453Z,0.40
2023-02-08T17:17:37.119Z,0.38
2023-02-08T17:20:04.631Z,0.30
2023-02-08T17:22:31.308Z,0.30
2023-02-08T17:24:57.993Z,0.30
2023-02-08T17:27:25.724Z,0.40
2023-02-08T17:29:52.911Z,0.20
2023-02-08T17:32:19.589Z,0.30
2023-02-08T17:34:46.280Z,0.30
2023-02-08T17:37:13.016Z,0.30
2023-02-08T17:39:39.750Z,0.35
2023-02-08T17:42:06.381Z,0.30
2023-02-08T17:44:33.091Z,0.30
2023-02-08T17:46:59.848Z,0.40
2023-02-08T17:49:28.530Z,0.40
2023-02-08T17:51:57.385Z,0.30
2023-02-08T17:54:24.149Z,0.30
2023-02-08T17:56:56.428Z,0.40
2023-02-08T17:59:23.646Z,0.40
2023-02-08T18:01:50.565Z,0.40
2023-02-08T18:04:17.248Z,0.50
2023-02-08T18:06:44.041Z,0.40
2023-02-08T18:09:10.673Z,0.40
2023-02-08T18:11:37.407Z,0.40
2023-02-08T18:14:04.073Z,0.40
2023-02-08T18:16:30.793Z,0.40
2023-02-08T18:21:34.363Z,0.40
2023-02-08T18:24:05.219Z,0.40
2023-02-08T18:26:34.396Z,0.47
2023-02-08T18:29:05.038Z,0.35
2023-02-08T18:31:32.449Z,0.30
2023-02-08T18:33:59.226Z,0.40
2023-02-08T18:36:26.003Z,0.43
2023-02-08T18:38:55.635Z,0.40
2023-02-08T18:41:25.736Z,0.40
2023-02-08T18:43:54.842Z,0.40
2023-02-08T18:46:23.140Z,0.40
2023-02-08T18:48:50.744Z,0.30
2023-02-08T18:51:19.742Z,0.57
2023-02-08T18:53:50.433Z,0.40
2023-02-08T18:56:24.004Z,0.40
2023-02-08T18:58:52.174Z,0.47
2023-02-08T19:01:24.291Z,0.50
2023-02-08T19:03:54.368Z,0.30
2023-02-08T19:06:24.596Z,0.50
2023-02-08T19:08:53.454Z,0.40
2023-02-08T19:11:26.609Z,0.50
2023-02-08T19:13:55.323Z,0.45
2023-02-08T19:16:22.817Z,0.47
2023-02-08T19:18:49.992Z,0.30
2023-02-08T19:21:17.692Z,0.40
2023-02-08T19:23:52.050Z,0.40
2023-02-08T19:26:21.962Z,0.40
2023-02-08T19:28:49.584Z,0.40
2023-02-08T19:31:20.212Z,0.40
2023-02-08T19:33:49.563Z,0.40
2023-02-08T19:36:19.691Z,0.40
2023-02-08T19:38:47.725Z,0.40
2023-02-08T19:41:20.918Z,0.43
2023-02-08T19:43:48.438Z,0.40
2023-02-08T19:46:22.281Z,0.40
2023-02-08T19:48:50.356Z,0.50
2023-02-08T19:53:45.095Z,0.40
2023-02-08T19:56:14.659Z,0.40
2023-02-08T19:58:41.352Z,0.40
2023-02-08T20:01:09.704Z,0.35
2023-02-08T20:03:36.564Z,0.30
2023-02-08T20:06:04.432Z,0.40
2023-02-08T20:08:31.849Z,0.30
2023-02-08T20:10:58.607Z,0.30
2023-02-08T20:13:25.398Z,0.40
2023-02-08T20:15:59.573Z,0.40
2023-02-08T20:18:26.224Z,0.38
2023-02-08T20:21:03.437Z,0.40
2023-02-08T20:23:30.749Z,0.50
2023-02-08T20:26:10.468Z,0.40
2023-02-08T20:28:39.638Z,0.40
2023-02-08T20:31:08.241Z,0.40
2023-02-08T20:33:35.421Z,0.40
2023-02-08T20:36:29.049Z,0.55
2023-02-08T20:38:57.335Z,0.30
2023-02-08T20:41:27.318Z,0.40
2023-02-08T20:43:54.662Z,0.40
2023-02-08T20:46:24.866Z,0.40
2023-02-08T20:48:53.084Z,0.40
2023-02-08T20:51:21.647Z,0.47
2023-02-08T20:53:49.913Z,0.40
2023-02-08T20:56:19.669Z,0.40
2023-02-08T20:58:46.910Z,0.40
2023-02-08T21:01:25.477Z,0.50
2023-02-08T21:06:29.849Z,0.45
2023-02-08T21:09:03.306Z,0.40
2023-02-08T21:11:31.768Z,0.40
2023-02-08T21:13:59.027Z,0.50
2023-02-08T21:16:26.597Z,0.43
2023-02-08T21:18:53.851Z,0.50
2023-02-08T21:21:21.114Z,0.40
2023-02-08T21:23:48.312Z,0.30
2023-02-08T21:26:18.276Z,0.47
2023-02-08T21:28:45.629Z,0.40
2023-02-08T21:31:16.663Z,0.47
2023-02-08T21:33:44.171Z,0.40
2023-02-08T21:36:14.259Z,0.40
2023-02-08T21:38:41.429Z,0.30
2023-02-08T21:41:14.789Z,0.50
2023-02-08T21:43:41.554Z,0.45
2023-02-08T21:46:09.669Z,0.40
2023-02-08T21:48:54.979Z,0.47
2023-02-08T21:51:41.107Z,0.40
2023-02-08T21:54:29.697Z,0.47
2023-02-08T21:56:58.827Z,0.50
2023-02-08T21:59:25.849Z,0.40
2023-02-08T22:01:52.579Z,0.40
2023-02-08T22:04:19.265Z,0.40
2023-02-08T22:06:46.280Z,0.47
2023-02-08T22:09:13.131Z,0.50
2023-02-08T22:11:40.847Z,0.50
2023-02-08T22:14:07.495Z,0.50
2023-02-08T22:16:34.177Z,0.50
2023-02-08T22:19:00.913Z,0.45
2023-02-08T22:23:55.505Z,0.40
2023-02-08T22:26:22.427Z,0.40
2023-02-08T22:28:49.139Z,0.40
2023-02-08T22:31:16.379Z,0.50
2023-02-08T22:33:43.181Z,0.45
2023-02-08T22:36:10.817Z,0.40
2023-02-08T22:38:38.408Z,0.30
2023-02-08T22:41:13.415Z,0.40
2023-02-08T22:43:40.190Z,0.40
2023-02-08T22:46:07.069Z,0.30
2023-02-08T22:48:34.443Z,0.40
2023-02-08T22:51:14.499Z,0.50
2023-02-08T22:53:41.630Z,0.30
2023-02-08T22:56:08.503Z,0.40
2023-02-08T22:58:35.424Z,0.40
2023-02-08T23:01:02.258Z,0.40
2023-02-08T23:03:29.268Z,0.40
2023-02-08T23:05:56.056Z,0.50
2023-02-08T23:08:23.218Z,0.52
2023-02-08T23:10:50.402Z,0.50
2023-02-08T23:13:17.132Z,0.50
2023-02-08T23:15:44.885Z,0.43
2023-02-08T23:20:40.724Z,0.40
2023-02-08T23:23:08.090Z,0.47
2023-02-08T23:25:39.780Z,0.43
2023-02-08T23:28:08.674Z,0.40
2023-02-08T23:30:37.972Z,0.40
2023-02-08T23:33:05.068Z,0.60
2023-02-08T23:35:31.984Z,0.50
2023-02-08T23:37:59.796Z,0.40
2023-02-08T23:40:26.804Z,0.50
2023-02-08T23:42:53.646Z,0.40
2023-02-08T23:45:20.473Z,0.47
2023-02-08T23:47:47.164Z,0.43
2023-02-08T23:50:14.216Z,0.32
2023-02-08T23:52:41.109Z,0.40
2023-02-08T23:55:08.485Z,0.40
2023-02-08T23:57:37.174Z,0.50
